sensor_id;sensor_type;location;lat;lon;timestamp;temperature;humidity
1165;DHT22;571;50.930;6.926;2023-09-08T04:17:50;20.50;96.10
1165;DHT22;571;50.930;6.926;2023-09-08T05:44:45;20.30;95.90
1165;DHT22;571;50.930;6.926;2023-09-08T06:00:33;20.30;95.90
1165;DHT22;571;50.930;6.926;2023-09-08T06:03:38;20.30;96.00
1165;DHT22;571;50.930;6.926;2023-09-08T06:23:38;20.60;95.70
1165;DHT22;571;50.930;6.926;2023-09-08T06:26:16;20.70;95.70
1165;DHT22;571;50.930;6.926;2023-09-08T06:28:50;20.70;95.50
1165;DHT22;571;50.930;6.926;2023-09-08T06:31:31;20.70;95.40
1165;DHT22;571;50.930;6.926;2023-09-08T06:34:37;20.80;95.40
1165;DHT22;571;50.930;6.926;2023-09-08T06:40:05;21.00;95.20
1165;DHT22;571;50.930;6.926;2023-09-08T06:44:21;21.00;95.00
1165;DHT22;571;50.930;6.926;2023-09-08T08:43:57;23.30;92.50
1165;DHT22;571;50.930;6.926;2023-09-08T08:57:32;23.70;91.70
1165;DHT22;571;50.930;6.926;2023-09-08T09:09:03;24.00;91.80
1165;DHT22;571;50.930;6.926;2023-09-08T09:12:24;24.00;91.80
1165;DHT22;571;50.930;6.926;2023-09-08T09:15:51;24.00;91.80
1165;DHT22;571;50.930;6.926;2023-09-08T09:23:21;24.20;91.70
1165;DHT22;571;50.930;6.926;2023-09-08T09:34:41;24.60;91.30
1165;DHT22;571;50.930;6.926;2023-09-08T09:37:13;24.80;90.90
1165;DHT22;571;50.930;6.926;2023-09-08T10:09:55;25.40;90.30
1165;DHT22;571;50.930;6.926;2023-09-08T10:14:18;25.40;90.10
1165;DHT22;571;50.930;6.926;2023-09-08T10:20:17;25.50;90.10
1165;DHT22;571;50.930;6.926;2023-09-08T10:23:12;25.60;90.00
1165;DHT22;571;50.930;6.926;2023-09-08T10:29:39;25.70;90.10
1165;DHT22;571;50.930;6.926;2023-09-08T10:32:34;25.70;90.00
1165;DHT22;571;50.930;6.926;2023-09-08T10:35:46;25.80;90.10
1165;DHT22;571;50.930;6.926;2023-09-08T11:20:34;27.80;78.30
1165;DHT22;571;50.930;6.926;2023-09-08T12:23:06;32.90;61.70
1165;DHT22;571;50.930;6.926;2023-09-08T12:48:29;36.00;51.70
1165;DHT22;571;50.930;6.926;2023-09-08T12:51:05;36.40;47.80
1165;DHT22;571;50.930;6.926;2023-09-08T13:20:46;38.10;43.80
1165;DHT22;571;50.930;6.926;2023-09-08T13:23:56;38.00;43.90
1165;DHT22;571;50.930;6.926;2023-09-08T13:43:04;37.30;43.60
1165;DHT22;571;50.930;6.926;2023-09-08T13:46:18;37.00;43.40
1165;DHT22;571;50.930;6.926;2023-09-08T13:59:50;36.70;43.40
1165;DHT22;571;50.930;6.926;2023-09-08T14:02:45;36.90;43.70
1165;DHT22;571;50.930;6.926;2023-09-08T14:08:23;37.10;43.40
1165;DHT22;571;50.930;6.926;2023-09-08T14:17:56;38.20;41.60
1165;DHT22;571;50.930;6.926;2023-09-08T14:21:09;38.70;41.60
1165;DHT22;571;50.930;6.926;2023-09-08T14:27:27;39.60;39.00
1165;DHT22;571;50.930;6.926;2023-09-08T14:30:28;40.10;40.20
1165;DHT22;571;50.930;6.926;2023-09-08T14:33:45;40.50;38.50
1165;DHT22;571;50.930;6.926;2023-09-08T14:36:58;41.00;37.10
1165;DHT22;571;50.930;6.926;2023-09-08T14:39:43;41.40;37.60
1165;DHT22;571;50.930;6.926;2023-09-08T14:42:45;41.60;36.50
1165;DHT22;571;50.930;6.926;2023-09-08T14:45:31;41.50;36.90
1165;DHT22;571;50.930;6.926;2023-09-08T14:48:20;41.60;37.40
1165;DHT22;571;50.930;6.926;2023-09-08T14:51:27;41.80;34.90
1165;DHT22;571;50.930;6.926;2023-09-08T14:54:13;41.90;36.00
1165;DHT22;571;50.930;6.926;2023-09-08T14:56:59;42.00;36.40
1165;DHT22;571;50.930;6.926;2023-09-08T14:59:34;42.30;33.80
1165;DHT22;571;50.930;6.926;2023-09-08T15:02:22;42.50;36.20
1165;DHT22;571;50.930;6.926;2023-09-08T15:05:28;42.70;35.20
1165;DHT22;571;50.930;6.926;2023-09-08T15:15:09;43.20;33.80
1165;DHT22;571;50.930;6.926;2023-09-08T15:18:13;43.30;32.60
1165;DHT22;571;50.930;6.926;2023-09-08T15:20:59;43.20;31.80
1165;DHT22;571;50.930;6.926;2023-09-08T15:23:51;43.10;32.70
1165;DHT22;571;50.930;6.926;2023-09-08T15:26:26;43.20;33.30
1165;DHT22;571;50.930;6.926;2023-09-08T15:29:26;42.80;33.00
1165;DHT22;571;50.930;6.926;2023-09-08T15:32:14;41.80;33.70
1165;DHT22;571;50.930;6.926;2023-09-08T15:35:00;40.60;34.20
1165;DHT22;571;50.930;6.926;2023-09-08T15:38:14;39.60;34.50
1165;DHT22;571;50.930;6.926;2023-09-08T15:44:11;37.70;37.00
1165;DHT22;571;50.930;6.926;2023-09-08T15:47:28;36.90;38.30
1165;DHT22;571;50.930;6.926;2023-09-08T15:50:58;36.40;38.60
1165;DHT22;571;50.930;6.926;2023-09-08T15:53:09;35.90;39.70
1165;DHT22;571;50.930;6.926;2023-09-08T15:56:21;35.40;40.80
1165;DHT22;571;50.930;6.926;2023-09-08T15:59:28;35.00;40.50
1165;DHT22;571;50.930;6.926;2023-09-08T16:02:18;34.60;41.60
1165;DHT22;571;50.930;6.926;2023-09-08T16:05:29;34.40;42.50
1165;DHT22;571;50.930;6.926;2023-09-08T16:12:40;33.90;43.20
1165;DHT22;571;50.930;6.926;2023-09-08T16:36:07;32.50;45.90
1165;DHT22;571;50.930;6.926;2023-09-08T16:38:44;32.40;46.20
1165;DHT22;571;50.930;6.926;2023-09-08T16:45:03;32.20;47.20
1165;DHT22;571;50.930;6.926;2023-09-08T16:47:57;32.10;47.00
1165;DHT22;571;50.930;6.926;2023-09-08T17:14:49;31.20;50.70
1165;DHT22;571;50.930;6.926;2023-09-08T17:20:38;31.10;51.70
1165;DHT22;571;50.930;6.926;2023-09-08T17:23:34;30.90;52.00
1165;DHT22;571;50.930;6.926;2023-09-08T17:26:42;30.80;52.30
1165;DHT22;571;50.930;6.926;2023-09-08T17:29:52;30.80;53.00
1165;DHT22;571;50.930;6.926;2023-09-08T17:32:54;30.70;53.00
1165;DHT22;571;50.930;6.926;2023-09-08T17:35:29;30.60;53.20
1165;DHT22;571;50.930;6.926;2023-09-08T17:38:10;30.60;53.50
1165;DHT22;571;50.930;6.926;2023-09-08T17:40:43;30.50;53.90
1165;DHT22;571;50.930;6.926;2023-09-08T17:43:15;30.40;54.20
1165;DHT22;571;50.930;6.926;2023-09-08T17:45:47;30.30;54.40
1165;DHT22;571;50.930;6.926;2023-09-08T17:48:15;30.30;55.20
1165;DHT22;571;50.930;6.926;2023-09-08T17:50:42;30.20;55.50
1165;DHT22;571;50.930;6.926;2023-09-08T17:53:09;30.20;55.80
1165;DHT22;571;50.930;6.926;2023-09-08T17:55:38;30.10;55.80
1165;DHT22;571;50.930;6.926;2023-09-08T17:58:11;29.90;55.80
1165;DHT22;571;50.930;6.926;2023-09-08T18:00:38;29.70;56.20
1165;DHT22;571;50.930;6.926;2023-09-08T18:03:06;29.70;56.70
1165;DHT22;571;50.930;6.926;2023-09-08T18:08:14;29.40;57.00
1165;DHT22;571;50.930;6.926;2023-09-08T18:11:03;29.30;57.20
1165;DHT22;571;50.930;6.926;2023-09-08T18:18:22;29.00;58.40
1165;DHT22;571;50.930;6.926;2023-09-08T18:49:50;28.00;64.80
1165;DHT22;571;50.930;6.926;2023-09-08T18:55:34;27.80;66.10
1165;DHT22;571;50.930;6.926;2023-09-08T18:58:16;27.70;67.60
1165;DHT22;571;50.930;6.926;2023-09-08T19:01:07;27.80;70.10
1165;DHT22;571;50.930;6.926;2023-09-08T19:03:50;27.70;72.10
1165;DHT22;571;50.930;6.926;2023-09-08T19:06:51;27.70;73.60
1165;DHT22;571;50.930;6.926;2023-09-08T19:09:50;27.70;74.50
1165;DHT22;571;50.930;6.926;2023-09-08T19:12:30;27.60;76.00
1165;DHT22;571;50.930;6.926;2023-09-08T19:19:12;27.50;77.90
1165;DHT22;571;50.930;6.926;2023-09-08T19:22:04;27.40;78.80
1165;DHT22;571;50.930;6.926;2023-09-08T19:24:42;27.40;79.80
1165;DHT22;571;50.930;6.926;2023-09-08T19:27:37;27.30;81.60
1165;DHT22;571;50.930;6.926;2023-09-08T19:30:15;27.30;82.80
1165;DHT22;571;50.930;6.926;2023-09-08T19:33:03;27.20;83.50
1165;DHT22;571;50.930;6.926;2023-09-08T19:35:47;27.10;84.60
1165;DHT22;571;50.930;6.926;2023-09-08T19:38:33;27.10;86.00
1165;DHT22;571;50.930;6.926;2023-09-08T19:41:36;27.00;86.80
1165;DHT22;571;50.930;6.926;2023-09-08T19:44:15;26.90;87.40
1165;DHT22;571;50.930;6.926;2023-09-08T19:47:12;26.80;88.30
1165;DHT22;571;50.930;6.926;2023-09-08T19:49:51;26.80;89.00
1165;DHT22;571;50.930;6.926;2023-09-08T19:52:51;26.70;89.00
1165;DHT22;571;50.930;6.926;2023-09-08T19:55:40;26.70;90.10
1165;DHT22;571;50.930;6.926;2023-09-08T19:58:24;26.60;90.20
1165;DHT22;571;50.930;6.926;2023-09-08T20:01:16;26.60;90.70
1165;DHT22;571;50.930;6.926;2023-09-08T20:03:58;26.60;90.90
1165;DHT22;571;50.930;6.926;2023-09-08T20:06:46;26.50;91.00
1165;DHT22;571;50.930;6.926;2023-09-08T20:09:26;26.40;90.90
1165;DHT22;571;50.930;6.926;2023-09-08T20:12:28;26.40;90.90
1165;DHT22;571;50.930;6.926;2023-09-08T20:15:03;26.40;90.80
1165;DHT22;571;50.930;6.926;2023-09-08T20:17:56;26.30;91.30
1165;DHT22;571;50.930;6.926;2023-09-08T20:27:36;26.20;91.90
1165;DHT22;571;50.930;6.926;2023-09-08T20:29:58;26.10;92.00
1165;DHT22;571;50.930;6.926;2023-09-08T20:32:44;26.00;92.10
1165;DHT22;571;50.930;6.926;2023-09-08T20:35:37;26.00;92.10
1165;DHT22;571;50.930;6.926;2023-09-08T20:38:19;25.90;92.30
1165;DHT22;571;50.930;6.926;2023-09-08T20:41:24;25.90;92.60
1165;DHT22;571;50.930;6.926;2023-09-08T20:44:40;25.80;92.80
1165;DHT22;571;50.930;6.926;2023-09-08T20:51:22;25.80;92.80
1165;DHT22;571;50.930;6.926;2023-09-08T20:57:54;25.60;93.00
1165;DHT22;571;50.930;6.926;2023-09-08T21:00:38;25.60;93.00
1165;DHT22;571;50.930;6.926;2023-09-08T21:03:39;25.60;93.10
1165;DHT22;571;50.930;6.926;2023-09-08T21:10:24;25.50;93.20
1165;DHT22;571;50.930;6.926;2023-09-08T21:23:33;25.30;93.10
1165;DHT22;571;50.930;6.926;2023-09-08T21:36:15;25.20;93.40
1165;DHT22;571;50.930;6.926;2023-09-08T21:43:04;25.00;93.60
1165;DHT22;571;50.930;6.926;2023-09-08T21:49:02;25.00;93.80
1165;DHT22;571;50.930;6.926;2023-09-08T21:54:50;24.90;94.00
1165;DHT22;571;50.930;6.926;2023-09-08T22:45:16;24.30;94.80
1165;DHT22;571;50.930;6.926;2023-09-08T22:48:00;24.20;95.00
1165;DHT22;571;50.930;6.926;2023-09-08T22:50:48;24.20;95.00
1165;DHT22;571;50.930;6.926;2023-09-08T22:54:00;24.20;95.00
1165;DHT22;571;50.930;6.926;2023-09-08T22:56:44;24.10;95.00
1165;DHT22;571;50.930;6.926;2023-09-08T23:06:16;24.10;95.00
1165;DHT22;571;50.930;6.926;2023-09-08T23:09:15;24.00;94.90
